Time;durP1;ratioP1;P1;durP2;ratioP2;P2;SDS_P1;SDS_P2;PMS_P1;PMS_P2;Temp;Humidity;BMP_temperature;BMP_pressure;BME280_temperature;BME280_humidity;BME280_pressure;Samples;Min_cycle;Max_cycle;Signal;HPM_P1;HPM_P2
2022/03/29 00:02:08;;;;;;;97.60;62.00;;;;;;;6.98;68.27;98448.80;105292;1268;61321;-72
2022/03/29 00:04:35;;;;;;;96.20;64.50;;;;;;;7.00;68.80;98460.71;105277;1268;61409;-72
2022/03/29 00:07:01;;;;;;;101.60;68.90;;;;;;;7.03;69.26;98481.90;105203;1268;61350;-70
2022/03/29 00:09:28;;;;;;;80.30;51.50;;;;;;;7.10;68.71;98470.36;105223;1268;61810;-70
2022/03/29 00:11:54;;;;;;;84.10;51.60;;;;;;;7.25;68.57;98465.85;105278;1268;61279;-72
2022/03/29 00:14:21;;;;;;;60.10;39.30;;;;;;;7.48;68.99;98455.09;105274;1268;61390;-72
2022/03/29 00:16:47;;;;;;;58.10;37.20;;;;;;;7.72;69.53;98444.88;105286;1268;61297;-70
2022/03/29 00:19:31;;;;;;;54.90;37.20;;;;;;;7.93;70.06;98432.08;105112;1268;75848;-70
2022/03/29 00:21:58;;;;;;;56.10;36.20;;;;;;;8.07;70.56;98425.61;105197;1268;61369;-70
2022/03/29 00:24:25;;;;;;;51.10;33.60;;;;;;;8.19;70.65;98417.95;105281;1268;61719;-70
2022/03/29 00:26:51;;;;;;;47.90;31.30;;;;;;;8.28;71.66;98407.05;105222;1268;75688;-71
2022/03/29 00:29:18;;;;;;;38.60;26.80;;;;;;;8.44;72.80;98407.13;105289;1268;61291;-74
2022/03/29 00:31:45;;;;;;;34.20;23.70;;;;;;;8.61;73.57;98407.52;105322;1268;73307;-68
2022/03/29 00:34:11;;;;;;;27.30;18.20;;;;;;;8.80;73.82;98412.10;104959;1268;61197;-70
2022/03/29 00:36:38;;;;;;;28.50;18.60;;;;;;;9.05;74.04;98410.54;105251;1268;61259;-70
2022/03/29 00:39:04;;;;;;;22.00;17.20;;;;;;;9.24;73.35;98408.65;105284;1268;61325;-72
2022/03/29 00:41:31;;;;;;;23.50;15.80;;;;;;;9.38;72.97;98410.98;105156;1268;61386;-73
2022/03/29 00:43:58;;;;;;;21.60;15.70;;;;;;;9.52;72.40;98418.33;105094;1268;73934;-71
2022/03/29 00:46:25;;;;;;;23.00;14.00;;;;;;;9.66;71.63;98421.40;105291;1268;61356;-70
2022/03/29 00:48:52;;;;;;;21.50;14.10;;;;;;;9.82;70.67;98423.30;105304;1268;62161;-72
2022/03/29 00:51:18;;;;;;;20.80;14.00;;;;;;;9.99;69.64;98420.77;105011;1268;61267;-70
2022/03/29 00:53:46;;;;;;;20.20;12.70;;;;;;;10.14;68.95;98406.23;104963;1268;61255;-71
2022/03/29 00:56:13;;;;;;;17.30;13.00;;;;;;;10.25;68.23;98418.70;104778;1268;242807;-71
2022/03/29 00:58:40;;;;;;;15.40;11.30;;;;;;;10.37;67.36;98422.64;105424;1268;61367;-69
2022/03/29 01:01:10;;;;;;;16.20;11.80;;;;;;;10.50;66.95;98420.70;105259;1268;61361;-70
2022/03/29 01:03:37;;;;;;;17.10;12.20;;;;;;;10.55;66.67;98407.95;104828;1268;74877;-71
2022/03/29 01:06:03;;;;;;;15.40;11.10;;;;;;;10.57;66.57;98411.38;105313;1268;70182;-71
2022/03/29 01:08:30;;;;;;;15.50;11.20;;;;;;;10.54;66.43;98408.02;104707;1268;61265;-69
2022/03/29 01:10:57;;;;;;;15.50;11.20;;;;;;;10.49;66.33;98403.04;105331;1268;61335;-70
2022/03/29 01:13:23;;;;;;;16.70;11.90;;;;;;;10.44;66.37;98407.92;105209;1268;61297;-70
2022/03/29 01:15:50;;;;;;;15.10;11.90;;;;;;;10.38;66.54;98404.82;104949;1268;75743;-70
2022/03/29 01:18:20;;;;;;;18.70;12.60;;;;;;;10.31;66.45;98399.28;104946;1268;70109;-70
2022/03/29 01:20:50;;;;;;;15.00;11.40;;;;;;;10.24;66.67;98390.52;105159;1268;73428;-73
2022/03/29 01:23:18;;;;;;;17.20;12.20;;;;;;;10.17;66.68;98376.50;104753;1268;61266;-68
2022/03/29 01:25:46;;;;;;;17.70;13.00;;;;;;;10.14;66.75;98372.12;105245;1268;61319;-69
2022/03/29 01:28:15;;;;;;;18.40;12.40;;;;;;;10.10;66.90;98375.77;105059;1268;75503;-67
2022/03/29 01:30:42;;;;;;;18.60;13.40;;;;;;;10.06;66.76;98371.98;105282;1268;69186;-69
2022/03/29 01:33:10;;;;;;;16.80;13.20;;;;;;;10.00;66.77;98373.48;105006;1268;74955;-71
2022/03/29 01:35:40;;;;;;;19.50;14.00;;;;;;;9.92;66.81;98367.38;105231;1268;61381;-70
2022/03/29 01:38:06;;;;;;;16.50;12.70;;;;;;;9.82;66.92;98358.91;105259;1268;61278;-71
2022/03/29 01:40:33;;;;;;;16.00;14.20;;;;;;;9.72;67.13;98363.92;105081;1268;76093;-69
2022/03/29 01:43:01;;;;;;;18.70;15.30;;;;;;;9.59;67.43;98378.66;104981;1268;69349;-69
2022/03/29 01:45:31;;;;;;;21.40;17.30;;;;;;;9.47;67.61;98384.48;105115;1268;74454;-70
2022/03/29 01:47:58;;;;;;;21.50;15.90;;;;;;;9.39;67.98;98383.48;104950;1268;61637;-69
2022/03/29 01:50:25;;;;;;;23.60;17.50;;;;;;;9.32;68.29;98377.61;105168;1268;61377;-69
2022/03/29 01:52:52;;;;;;;23.40;19.10;;;;;;;9.27;68.44;98369.80;104867;1272;75391;-69
2022/03/29 01:55:20;;;;;;;22.60;19.30;;;;;;;9.21;68.49;98364.73;105038;1268;70210;-73
2022/03/29 01:57:48;;;;;;;24.30;20.70;;;;;;;9.14;68.59;98357.45;105317;1268;74228;-69
2022/03/29 02:00:34;;;;;;;23.20;20.50;;;;;;;9.06;68.94;98356.20;105251;1268;61202;-67
2022/03/29 02:03:05;;;;;;;22.30;18.80;;;;;;;8.97;68.90;98354.41;105027;1268;61757;-68
2022/03/29 02:05:32;;;;;;;20.90;17.50;;;;;;;8.89;69.15;98353.19;105366;1268;76842;-67
2022/03/29 02:08:00;;;;;;;21.90;18.00;;;;;;;8.82;69.50;98350.66;105099;1268;70425;-70
2022/03/29 02:10:26;;;;;;;22.60;16.50;;;;;;;8.73;69.48;98351.29;105093;1268;74385;-69
2022/03/29 02:12:53;;;;;;;20.10;15.80;;;;;;;8.65;69.70;98346.52;105175;1268;61283;-69
2022/03/29 02:15:20;;;;;;;19.70;15.70;;;;;;;8.57;69.88;98339.83;105166;1268;61577;-72
2022/03/29 02:17:48;;;;;;;21.00;17.00;;;;;;;8.49;69.98;98340.56;105326;1268;75606;-68
2022/03/29 02:20:16;;;;;;;19.10;16.20;;;;;;;8.42;70.12;98340.34;105230;1268;69290;-70
2022/03/29 02:22:44;;;;;;;22.70;17.30;;;;;;;8.35;70.34;98337.92;105397;1268;72440;-71
2022/03/29 02:25:11;;;;;;;23.40;17.80;;;;;;;8.30;70.36;98335.12;105364;1268;61390;-69
2022/03/29 02:27:39;;;;;;;23.80;17.20;;;;;;;8.25;70.61;98338.10;105036;1268;61935;-67
2022/03/29 02:30:08;;;;;;;23.10;17.70;;;;;;;8.21;70.64;98337.80;105226;1268;76390;-71
2022/03/29 02:32:35;;;;;;;27.00;18.90;;;;;;;8.18;70.80;98339.48;105479;1268;69376;-71
2022/03/29 02:35:02;;;;;;;26.50;19.90;;;;;;;8.13;70.85;98340.98;105423;1268;73720;-71
2022/03/29 02:37:28;;;;;;;24.60;19.70;;;;;;;8.09;71.00;98334.20;105393;1268;61262;-71
2022/03/29 02:39:55;;;;;;;25.60;19.30;;;;;;;8.04;71.11;98327.50;105434;1268;61313;-72
2022/03/29 02:42:22;;;;;;;25.60;19.10;;;;;;;7.99;71.32;98330.98;105479;1268;61358;-71
2022/03/29 02:44:48;;;;;;;26.40;20.10;;;;;;;7.96;71.43;98331.39;105495;1268;70257;-72
2022/03/29 02:47:15;;;;;;;27.30;21.30;;;;;;;7.91;71.46;98329.23;105440;1268;61274;-71
2022/03/29 02:49:41;;;;;;;26.90;21.40;;;;;;;7.87;71.47;98329.30;105355;1268;61233;-71
2022/03/29 02:52:10;;;;;;;27.90;20.60;;;;;;;7.84;71.80;98332.17;105353;1268;61274;-73
2022/03/29 02:54:36;;;;;;;28.10;20.20;;;;;;;7.81;72.05;98334.27;105435;1268;75623;-71
2022/03/29 02:57:04;;;;;;;26.90;20.40;;;;;;;7.82;72.23;98332.67;105370;1268;70387;-73
2022/03/29 02:59:30;;;;;;;28.50;21.30;;;;;;;7.83;72.51;98332.73;105340;1268;73224;-70
2022/03/29 03:01:57;;;;;;;28.70;20.80;;;;;;;7.86;72.64;98335.41;105096;1268;61284;-72
2022/03/29 03:04:23;;;;;;;30.00;22.00;;;;;;;7.86;72.70;98330.05;105361;1268;61176;-71
2022/03/29 03:06:50;;;;;;;30.10;21.30;;;;;;;7.85;72.68;98325.36;105365;1268;75463;-70
2022/03/29 03:09:16;;;;;;;27.20;21.40;;;;;;;7.82;72.78;98322.05;105335;1268;61310;-71
2022/03/29 03:11:43;;;;;;;30.20;24.60;;;;;;;7.78;72.97;98322.34;105308;1268;61291;-71
2022/03/29 03:14:09;;;;;;;34.30;27.30;;;;;;;7.73;73.11;98324.75;105345;1268;61387;-73
2022/03/29 03:16:36;;;;;;;29.60;25.00;;;;;;;7.69;73.08;98322.91;105386;1268;61192;-72
2022/03/29 03:19:02;;;;;;;30.20;23.00;;;;;;;7.67;73.32;98323.75;105314;1268;61374;-71
2022/03/29 03:21:29;;;;;;;30.60;23.10;;;;;;;7.65;73.27;98314.66;105321;1268;61256;-71
2022/03/29 03:23:55;;;;;;;31.40;24.60;;;;;;;7.64;73.29;98311.06;105132;1268;61378;-72
2022/03/29 03:26:22;;;;;;;30.40;24.40;;;;;;;7.62;73.46;98307.47;105333;1268;61390;-71
2022/03/29 03:28:49;;;;;;;32.60;26.70;;;;;;;7.59;73.74;98311.06;105320;1268;61226;-71
2022/03/29 03:31:15;;;;;;;39.40;28.40;;;;;;;7.53;73.83;98309.80;105331;1268;75664;-73
2022/03/29 03:33:42;;;;;;;45.40;32.30;;;;;;;7.51;74.25;98306.96;105311;1268;61222;-71
2022/03/29 03:36:08;;;;;;;45.20;32.10;;;;;;;7.52;74.11;98305.52;105297;1268;73143;-71
2022/03/29 03:38:35;;;;;;;40.30;30.30;;;;;;;7.50;74.24;98300.64;105291;1268;61348;-72
2022/03/29 03:41:02;;;;;;;35.30;27.60;;;;;;;7.48;74.73;98292.10;105321;1268;61229;-71
2022/03/29 03:43:29;;;;;;;34.90;25.80;;;;;;;7.47;75.04;98290.02;105331;1268;75890;-71
2022/03/29 03:45:55;;;;;;;32.80;27.20;;;;;;;7.50;75.18;98289.89;105315;1268;69482;-70
2022/03/29 03:48:22;;;;;;;42.60;31.50;;;;;;;7.53;75.52;98291.64;105302;1268;61168;-70
2022/03/29 03:50:48;;;;;;;46.50;34.20;;;;;;;7.55;75.40;98289.15;105386;1268;61179;-73
2022/03/29 03:53:15;;;;;;;45.40;34.10;;;;;;;7.59;75.74;98289.27;105340;1268;61338;-72
2022/03/29 03:55:41;;;;;;;45.10;37.40;;;;;;;7.63;76.23;98295.20;105503;1268;61364;-73
2022/03/29 03:58:08;;;;;;;46.10;35.60;;;;;;;7.66;75.80;98289.48;105503;1268;69202;-71
2022/03/29 04:00:34;;;;;;;46.40;36.00;;;;;;;7.68;75.61;98290.78;105374;1268;61370;-71
2022/03/29 04:03:01;;;;;;;42.40;32.40;;;;;;;7.72;76.02;98294.59;104989;1268;61395;-70
2022/03/29 04:05:28;;;;;;;40.60;31.90;;;;;;;7.76;75.88;98298.89;105323;1268;61731;-72
2022/03/29 04:07:55;;;;;;;46.00;31.20;;;;;;;7.80;76.25;98308.90;105390;1268;76255;-72
2022/03/29 04:10:21;;;;;;;35.70;27.50;;;;;;;7.86;76.64;98313.09;105383;1268;61348;-71
2022/03/29 04:12:48;;;;;;;38.30;29.50;;;;;;;7.93;76.58;98315.27;105311;1268;61285;-71
2022/03/29 04:15:14;;;;;;;37.90;30.10;;;;;;;7.99;76.63;98311.02;105343;1268;61357;-71
2022/03/29 04:17:41;;;;;;;37.10;29.00;;;;;;;8.02;76.74;98304.80;105105;1269;61337;-72
2022/03/29 04:20:08;;;;;;;36.30;28.40;;;;;;;8.03;76.66;98294.84;105352;1268;61277;-73
2022/03/29 04:22:35;;;;;;;30.90;25.50;;;;;;;8.05;76.98;98296.98;105422;1268;69308;-71
2022/03/29 04:25:02;;;;;;;33.80;25.50;;;;;;;8.09;76.55;98295.48;105357;1268;61281;-71
2022/03/29 04:27:29;;;;;;;35.90;25.30;;;;;;;8.09;76.43;98291.39;105096;1268;61170;-71
2022/03/29 04:29:55;;;;;;;31.30;23.40;;;;;;;8.10;76.59;98289.77;105378;1268;61370;-71
2022/03/29 04:32:22;;;;;;;35.50;25.30;;;;;;;8.13;76.35;98291.31;105061;1268;61338;-71
2022/03/29 04:34:48;;;;;;;36.90;25.60;;;;;;;8.12;76.29;98294.42;105406;1268;61329;-72
2022/03/29 04:37:15;;;;;;;30.70;23.70;;;;;;;8.11;76.48;98290.17;105420;1268;61288;-71
2022/03/29 04:39:41;;;;;;;28.70;23.00;;;;;;;8.14;76.55;98289.64;105385;1266;61422;-72
2022/03/29 04:42:08;;;;;;;30.30;24.50;;;;;;;8.18;76.74;98291.52;105389;1268;61163;-72
2022/03/29 04:44:35;;;;;;;31.40;24.50;;;;;;;8.19;76.67;98291.23;105144;1268;73622;-71
2022/03/29 04:47:04;;;;;;;30.60;24.70;;;;;;;8.19;76.51;98288.96;105073;1268;69241;-70
2022/03/29 04:49:30;;;;;;;35.30;25.00;;;;;;;8.18;76.41;98294.33;105706;1268;74580;-72
2022/03/29 04:51:57;;;;;;;32.00;23.60;;;;;;;8.17;76.25;98294.06;105336;1268;61285;-72
2022/03/29 04:54:24;;;;;;;32.50;24.70;;;;;;;8.17;76.15;98290.52;105080;1268;61288;-71
2022/03/29 04:56:50;;;;;;;31.70;25.60;;;;;;;8.19;76.14;98293.19;105358;1268;61298;-71
2022/03/29 04:59:17;;;;;;;31.20;23.00;;;;;;;8.23;75.94;98290.10;105401;1268;61250;-71
2022/03/29 05:01:44;;;;;;;30.40;24.40;;;;;;;8.27;75.90;98294.41;105416;1268;74684;-73
2022/03/29 05:04:10;;;;;;;31.00;23.40;;;;;;;8.32;75.71;98289.63;105356;1268;61199;-72
2022/03/29 05:06:37;;;;;;;32.00;23.90;;;;;;;8.37;75.62;98292.48;105381;1268;61327;-72
2022/03/29 05:09:03;;;;;;;30.90;23.50;;;;;;;8.46;75.56;98296.88;105401;1268;61372;-72
2022/03/29 05:11:30;;;;;;;31.30;23.50;;;;;;;8.54;75.32;98294.33;105365;1268;61339;-71
2022/03/29 05:13:57;;;;;;;29.60;23.40;;;;;;;8.63;75.03;98286.98;105395;1268;61259;-71
2022/03/29 05:16:23;;;;;;;31.20;23.70;;;;;;;8.73;74.75;98285.36;105396;1268;61268;-72
2022/03/29 05:18:51;;;;;;;35.90;22.70;;;;;;;8.91;74.45;98283.80;105359;1268;61345;-70
2022/03/29 05:21:17;;;;;;;30.20;22.00;;;;;;;9.06;74.28;98274.54;105359;1268;76306;-71
2022/03/29 05:23:44;;;;;;;33.40;24.00;;;;;;;9.20;74.07;98274.60;105395;1268;61426;-72
2022/03/29 05:26:11;;;;;;;33.40;26.80;;;;;;;9.32;73.72;98272.81;105374;1268;61246;-71
2022/03/29 05:28:37;;;;;;;28.30;22.40;;;;;;;9.42;73.36;98279.70;105390;1268;61268;-72
2022/03/29 05:31:04;;;;;;;32.00;22.60;;;;;;;9.52;73.02;98284.46;105399;1268;61275;-71
2022/03/29 05:33:31;;;;;;;26.00;21.00;;;;;;;9.57;72.82;98288.36;105395;1268;75084;-72
2022/03/29 05:35:57;;;;;;;34.90;22.80;;;;;;;9.63;72.65;98294.84;105408;1268;61406;-72
2022/03/29 05:38:24;;;;;;;30.50;23.60;;;;;;;9.74;72.56;98292.62;105339;1268;61199;-71
2022/03/29 05:40:50;;;;;;;30.00;23.30;;;;;;;9.85;72.62;98293.68;105276;1268;61407;-71
2022/03/29 05:43:17;;;;;;;39.40;24.30;;;;;;;9.97;72.18;98299.36;105090;1271;61346;-70
2022/03/29 05:48:51;;;;;;;33.70;24.00;;;;;;;10.05;72.01;98301.95;105334;1268;61228;-72
2022/03/29 05:49:04;;;;;;;38.10;24.50;;;;;;;10.09;71.82;98297.00;105344;1268;69426;-71
2022/03/29 05:51:24;;;;;;;34.30;24.90;;;;;;;10.17;71.87;98299.80;105277;1268;74252;-72
2022/03/29 05:53:52;;;;;;;27.20;22.70;;;;;;;10.24;71.79;98298.59;105267;1271;61294;-71
2022/03/29 05:56:19;;;;;;;30.10;23.90;;;;;;;10.27;71.62;98298.19;105110;1268;61339;-72
2022/03/29 05:58:46;;;;;;;34.70;23.90;;;;;;;10.27;71.68;98298.01;105289;1271;75813;-70
2022/03/29 06:01:13;;;;;;;31.30;21.90;;;;;;;10.25;71.59;98297.59;105254;1268;69343;-72
2022/03/29 06:03:40;;;;;;;32.20;24.00;;;;;;;10.23;71.59;98301.31;105310;1268;74458;-71
2022/03/29 06:06:08;;;;;;;35.20;26.70;;;;;;;10.19;71.82;98304.14;105287;1268;61367;-71
2022/03/29 06:08:35;;;;;;;39.40;26.80;;;;;;;10.14;71.82;98304.30;105318;1268;61858;-71
2022/03/29 06:11:04;;;;;;;44.30;27.60;;;;;;;10.09;72.13;98311.60;105261;1268;75394;-71
2022/03/29 06:13:31;;;;;;;34.60;24.70;;;;;;;10.02;72.30;98311.81;105326;1268;70454;-71
2022/03/29 06:15:58;;;;;;;37.40;26.00;;;;;;;9.95;72.32;98320.13;105315;1268;72616;-72
2022/03/29 06:18:25;;;;;;;32.60;23.20;;;;;;;9.89;72.45;98325.20;105255;1268;61267;-70
2022/03/29 06:20:51;;;;;;;29.10;21.30;;;;;;;9.85;72.45;98323.70;105352;1268;61311;-71
2022/03/29 06:23:19;;;;;;;28.60;20.30;;;;;;;9.83;72.59;98324.61;105288;1268;76284;-72
2022/03/29 06:25:46;;;;;;;25.70;20.80;;;;;;;9.82;72.78;98327.30;105304;1268;70397;-72
2022/03/29 06:28:14;;;;;;;29.50;20.10;;;;;;;9.83;72.95;98334.17;105281;1268;74360;-71
2022/03/29 06:30:41;;;;;;;28.60;20.60;;;;;;;9.86;73.00;98334.26;105335;1268;61274;-71
2022/03/29 06:33:07;;;;;;;26.50;20.00;;;;;;;9.93;73.01;98337.13;105034;1269;61266;-71
2022/03/29 06:35:37;;;;;;;22.50;18.60;;;;;;;9.99;73.01;98335.82;105252;1268;76360;-72
2022/03/29 06:38:05;;;;;;;;;;;;;;;10.05;73.04;98338.92;105080;1269;70337;-75
2022/03/29 06:40:32;;;;;;;26.80;19.30;;;;;;;10.12;72.83;98326.65;105323;1268;73501;-73
2022/03/29 06:43:01;;;;;;;23.10;18.60;;;;;;;10.23;72.72;98325.47;105299;1269;61246;-71
2022/03/29 06:45:28;;;;;;;25.20;18.90;;;;;;;10.33;72.61;98318.17;105284;1268;61275;-71
2022/03/29 06:47:58;;;;;;;29.40;20.20;;;;;;;10.44;72.40;98316.80;105297;1268;75330;-71
2022/03/29 06:50:24;;;;;;;25.20;19.80;;;;;;;10.49;72.39;98313.55;105253;1268;70367;-70
2022/03/29 06:52:51;;;;;;;28.40;22.40;;;;;;;10.46;72.54;98308.27;105294;1268;73523;-72
2022/03/29 06:55:18;;;;;;;28.20;20.90;;;;;;;10.42;72.70;98301.84;105313;1268;61148;-70
2022/03/29 06:57:45;;;;;;;26.20;20.90;;;;;;;10.38;72.89;98315.46;105380;1271;61252;-72
2022/03/29 07:00:12;;;;;;;29.60;21.90;;;;;;;10.35;72.98;98319.23;105319;1268;75232;-72
2022/03/29 07:02:39;;;;;;;28.40;23.10;;;;;;;10.30;73.85;98326.56;105521;1268;69164;-71
2022/03/29 07:05:07;;;;;;;32.10;22.70;;;;;;;10.24;74.84;98329.66;105145;1268;73194;-71
2022/03/29 07:07:34;;;;;;;29.10;22.10;;;;;;;10.17;75.21;98338.54;105361;1268;61360;-75
2022/03/29 07:12:47;;;;;;;28.90;22.20;;;;;;;10.02;75.87;98358.31;105352;1268;76373;-72
2022/03/29 07:15:15;;;;;;;28.40;23.90;;;;;;;10.00;76.12;98352.89;105332;1268;70086;-71
2022/03/29 07:17:42;;;;;;;29.70;23.50;;;;;;;10.04;76.57;98351.17;105354;1268;74270;-74
2022/03/29 07:20:10;;;;;;;29.30;22.00;;;;;;;10.06;76.58;98349.65;105293;1269;61619;-72
2022/03/29 07:22:36;;;;;;;29.30;22.80;;;;;;;10.08;76.46;98340.58;105315;1268;61298;-71
2022/03/29 07:25:03;;;;;;;27.10;22.90;;;;;;;10.17;76.76;98322.94;105186;1269;74809;-72
2022/03/29 07:27:30;;;;;;;28.10;22.00;;;;;;;10.30;76.62;98313.60;105332;1268;70144;-72
2022/03/29 07:29:59;;;;;;;26.20;22.10;;;;;;;10.51;76.26;98313.02;105370;1268;74180;-73
2022/03/29 07:32:27;;;;;;;27.60;23.10;;;;;;;10.75;76.15;98312.09;105134;1269;61418;-73
2022/03/29 07:34:54;;;;;;;30.70;25.50;;;;;;;10.99;75.81;98313.89;105461;1268;61297;-72
2022/03/29 07:37:22;;;;;;;28.20;24.40;;;;;;;11.29;75.93;98318.77;105349;1268;73689;-72
2022/03/29 07:39:53;;;;;;;27.10;22.90;;;;;;;11.53;75.49;98316.66;105402;1268;70061;-72
2022/03/29 07:42:25;;;;;;;25.60;21.40;;;;;;;11.75;75.08;98309.38;105169;1269;73780;-72
2022/03/29 07:44:51;;;;;;;24.40;21.30;;;;;;;11.92;74.68;98306.36;105373;1268;61672;-71
2022/03/29 07:47:21;;;;;;;26.70;23.50;;;;;;;12.07;74.41;98309.70;105328;1268;61402;-72
2022/03/29 07:49:48;;;;;;;28.60;23.40;;;;;;;12.27;74.35;98308.95;105354;1268;75152;-73
2022/03/29 07:52:14;;;;;;;31.90;25.10;;;;;;;12.46;73.91;98310.88;105346;1268;69482;-72
2022/03/29 07:54:41;;;;;;;30.50;26.00;;;;;;;12.65;73.92;98312.61;105342;1268;74483;-72
2022/03/29 07:57:08;;;;;;;31.40;25.20;;;;;;;12.85;73.73;98308.98;105326;1268;61345;-71
2022/03/29 07:59:37;;;;;;;28.60;23.70;;;;;;;12.98;72.69;98307.84;105073;1269;62052;-73
2022/03/29 08:02:07;;;;;;;26.80;23.80;;;;;;;13.03;72.32;98307.55;105178;1272;75142;-72
2022/03/29 08:04:35;;;;;;;27.00;23.30;;;;;;;13.14;72.16;98310.09;105303;1268;70472;-70
2022/03/29 08:07:01;;;;;;;31.90;25.70;;;;;;;13.28;71.96;98300.21;105334;1268;74042;-72
2022/03/29 08:09:28;;;;;;;28.60;23.10;;;;;;;13.41;71.64;98297.77;105306;1268;61446;-72
2022/03/29 08:11:55;;;;;;;25.60;21.40;;;;;;;13.48;71.04;98298.08;105382;1268;61147;-71
2022/03/29 08:14:24;;;;;;;25.20;22.00;;;;;;;13.48;70.58;98293.75;105393;1268;74786;-71
2022/03/29 08:16:50;;;;;;;25.60;21.40;;;;;;;13.54;70.50;98293.67;105473;1268;70245;-71
2022/03/29 08:19:17;;;;;;;23.90;20.40;;;;;;;13.59;70.05;98294.48;105392;1268;61374;-72
2022/03/29 08:21:49;;;;;;;26.10;21.80;;;;;;;13.61;69.84;98292.54;105422;1268;61409;-72
2022/03/29 08:24:18;;;;;;;29.30;22.50;;;;;;;13.67;69.32;98290.60;105132;1271;62393;-70
2022/03/29 08:26:46;;;;;;;25.30;21.50;;;;;;;13.82;69.18;98296.53;105141;1271;76392;-71
2022/03/29 08:29:13;;;;;;;28.20;22.10;;;;;;;13.97;68.67;98294.95;105320;1268;69143;-71
2022/03/29 08:31:40;;;;;;;29.00;22.80;;;;;;;14.13;68.40;98292.47;105349;1268;73302;-72
2022/03/29 08:34:07;;;;;;;29.40;22.50;;;;;;;14.26;67.73;98292.28;105342;1268;61679;-71
2022/03/29 08:36:36;;;;;;;27.20;21.20;;;;;;;14.39;67.32;98294.15;105313;1268;62080;-72
2022/03/29 08:39:04;;;;;;;25.70;22.40;;;;;;;14.41;66.03;98294.27;105520;1268;75913;-71
2022/03/29 08:41:37;;;;;;;24.70;20.50;;;;;;;14.47;65.98;98290.33;105477;1268;70082;-72
2022/03/29 08:44:05;;;;;;;27.30;23.00;;;;;;;14.48;65.64;98292.38;105500;1268;73183;-72
2022/03/29 08:46:33;;;;;;;27.00;24.20;;;;;;;14.55;64.71;98290.17;105363;1268;61365;-72
2022/03/29 08:49:00;;;;;;;24.10;21.40;;;;;;;14.55;64.78;98292.55;105448;1268;61258;-71
2022/03/29 08:51:27;;;;;;;26.60;22.30;;;;;;;14.54;64.40;98293.80;105341;1268;76203;-73
2022/03/29 08:53:53;;;;;;;24.60;21.70;;;;;;;14.46;64.43;98292.89;105360;1268;69674;-71
2022/03/29 08:56:20;;;;;;;24.10;21.50;;;;;;;14.51;64.12;98292.33;105335;1268;61277;-71
2022/03/29 08:58:47;;;;;;;25.80;22.60;;;;;;;14.43;62.41;98287.08;105313;1268;61256;-70
2022/03/29 09:01:19;;;;;;;24.10;21.40;;;;;;;14.35;62.61;98286.11;105374;1271;61914;-71
2022/03/29 09:04:03;;;;;;;24.80;21.90;;;;;;;14.32;62.47;98286.96;105377;1268;76450;-73
2022/03/29 09:06:30;;;;;;;26.20;23.00;;;;;;;14.23;61.38;98290.41;105365;1268;70161;-73
2022/03/29 09:08:57;;;;;;;30.90;23.60;;;;;;;14.11;62.04;98286.96;105317;1268;74500;-71
2022/03/29 09:11:23;;;;;;;27.40;23.50;;;;;;;14.23;62.57;98286.89;105346;1268;61682;-71
2022/03/29 09:14:03;;;;;;;26.80;21.60;;;;;;;14.46;62.73;98283.98;105362;1268;61215;-71
2022/03/29 09:16:34;;;;;;;24.90;20.20;;;;;;;14.60;60.42;98279.33;105361;1268;75201;-71
2022/03/29 09:19:02;;;;;;;24.00;20.10;;;;;;;14.68;60.36;98272.86;105288;1269;69338;-72
2022/03/29 09:21:39;;;;;;;25.90;21.60;;;;;;;14.92;60.08;98268.71;105377;1268;74341;-73
2022/03/29 09:24:11;;;;;;;26.90;23.90;;;;;;;15.09;59.13;98273.36;105352;1269;61303;-71
2022/03/29 09:26:40;;;;;;;30.50;24.20;;;;;;;15.05;59.86;98273.72;105350;1268;61678;-74
2022/03/29 09:29:24;;;;;;;22.70;19.60;;;;;;;15.25;59.62;98269.52;105348;1268;75034;-70
2022/03/29 09:32:08;;;;;;;22.50;19.50;;;;;;;15.40;57.84;98264.27;105346;1268;70340;-71
2022/03/29 09:34:35;;;;;;;23.80;19.40;;;;;;;15.45;57.23;98259.70;105297;1271;74433;-72
2022/03/29 09:37:03;;;;;;;25.50;20.40;;;;;;;15.43;56.61;98256.76;105278;1271;61231;-72
2022/03/29 09:39:36;;;;;;;28.30;24.20;;;;;;;15.37;57.43;98257.75;105096;1268;62035;-72
2022/03/29 09:42:07;;;;;;;29.20;24.50;;;;;;;15.28;57.87;98258.21;105139;1268;76129;-71
2022/03/29 09:44:41;;;;;;;31.80;26.90;;;;;;;15.34;58.82;98256.59;105340;1268;70425;-71
2022/03/29 09:47:09;;;;;;;30.00;26.50;;;;;;;15.52;58.68;98253.54;105666;1268;74503;-71
2022/03/29 09:49:49;;;;;;;27.90;24.90;;;;;;;15.70;58.04;98250.86;105264;1271;61285;-72
2022/03/29 09:52:18;;;;;;;28.50;24.20;;;;;;;15.51;56.42;98251.85;105370;1268;61396;-72
2022/03/29 09:55:09;;;;;;;25.20;22.50;;;;;;;15.45;56.88;98251.95;105388;1271;76386;-72
2022/03/29 09:58:00;;;;;;;25.50;21.00;;;;;;;15.56;55.63;98252.62;105286;1271;70594;-71
2022/03/29 10:00:29;;;;;;;;;;;;;;;15.61;55.70;98248.58;105383;1268;74207;-71
2022/03/29 10:02:56;;;;;;;25.10;20.20;;;;;;;15.58;54.26;98245.50;105360;1268;61377;-73
2022/03/29 10:05:23;;;;;;;27.70;21.10;;;;;;;15.48;54.53;98240.67;105352;1268;60706;-70
2022/03/29 10:10:46;;;;;;;24.30;21.30;;;;;;;15.53;53.75;98238.60;105360;1268;69937;-71
2022/03/29 10:13:14;;;;;;;24.30;20.20;;;;;;;15.46;53.85;98237.73;105380;1268;73338;-72
2022/03/29 10:15:41;;;;;;;26.30;22.70;;;;;;;15.35;53.88;98236.25;105466;1268;61281;-73
2022/03/29 10:18:08;;;;;;;24.80;21.60;;;;;;;15.44;54.66;98233.92;105325;1268;62082;-71
2022/03/29 10:20:35;;;;;;;25.30;21.90;;;;;;;15.62;55.00;98223.80;105357;1268;76207;-71
2022/03/29 10:23:03;;;;;;;23.00;20.60;;;;;;;15.82;54.92;98225.72;105326;1268;70064;-72
2022/03/29 10:25:31;;;;;;;25.00;22.40;;;;;;;15.92;55.05;98219.98;105272;1268;74365;-70
2022/03/29 10:28:00;;;;;;;24.00;21.50;;;;;;;16.16;55.27;98212.38;105298;1268;61170;-71
2022/03/29 10:30:39;;;;;;;26.60;21.20;;;;;;;16.39;54.98;98205.91;105505;1268;61670;-72
2022/03/29 10:33:24;;;;;;;23.90;21.30;;;;;;;16.51;54.69;98199.38;105501;1268;76391;-70
2022/03/29 10:36:09;;;;;;;24.90;22.10;;;;;;;16.47;53.42;98202.21;105355;1268;69271;-70
2022/03/29 10:38:51;;;;;;;26.40;23.40;;;;;;;16.18;52.72;98201.41;105335;1268;73477;-71
2022/03/29 10:41:26;;;;;;;25.20;21.80;;;;;;;15.92;52.98;98202.65;105314;1268;61265;-71
2022/03/29 10:44:04;;;;;;;23.10;20.70;;;;;;;15.75;53.31;98199.50;105428;1268;61497;-72
2022/03/29 10:46:36;;;;;;;23.50;20.90;;;;;;;15.75;53.63;98193.92;105322;1268;74241;-73
2022/03/29 10:49:32;;;;;;;23.40;20.60;;;;;;;15.76;52.69;98186.38;105336;1268;68652;-73
2022/03/29 10:52:04;;;;;;;23.80;21.10;;;;;;;15.62;52.93;98181.65;105329;1268;73264;-72
2022/03/29 10:54:41;;;;;;;22.50;18.50;;;;;;;15.68;53.42;98183.59;105356;1268;61390;-72
2022/03/29 10:57:25;;;;;;;25.70;21.00;;;;;;;15.82;53.07;98188.98;105344;1268;62116;-72
2022/03/29 11:00:17;;;;;;;20.90;18.30;;;;;;;15.85;53.22;98176.36;105455;1268;76274;-72
2022/03/29 11:03:08;;;;;;;21.40;19.10;;;;;;;15.89;52.72;98172.70;105336;1271;70672;-71
2022/03/29 11:06:07;;;;;;;22.30;17.90;;;;;;;16.02;52.65;98170.34;105330;1268;74353;-72
2022/03/29 11:08:36;;;;;;;20.40;18.20;;;;;;;16.08;52.55;98168.84;104572;1277;61363;-70
2022/03/29 11:11:03;;;;;;;20.50;18.30;;;;;;;16.17;52.35;98167.71;104637;1277;61767;-71
2022/03/29 11:13:37;;;;;;;21.00;18.80;;;;;;;16.21;52.49;98167.58;104576;1277;76456;-69
2022/03/29 11:16:30;;;;;;;21.40;19.20;;;;;;;16.33;52.08;98159.52;104638;1277;70523;-72
2022/03/29 11:18:59;;;;;;;22.80;20.40;;;;;;;16.17;50.56;98160.20;104514;1278;71580;-71
2022/03/29 11:21:34;;;;;;;20.90;18.30;;;;;;;15.98;51.25;98160.01;104632;1277;61343;-71
2022/03/29 11:24:04;;;;;;;21.70;18.80;;;;;;;16.02;51.47;98157.89;104664;1277;61415;-70
2022/03/29 11:26:33;;;;;;;22.30;20.00;;;;;;;15.99;51.85;98158.00;104660;1277;75690;-72
2022/03/29 11:29:02;;;;;;;21.90;19.30;;;;;;;16.09;52.13;98158.63;104655;1277;69047;-73